createdAt,value
2022-10-08T00:03:01.010Z,11.69
2022-10-08T00:08:02.118Z,11.85
2022-10-08T00:13:03.251Z,11.85
2022-10-08T00:18:04.407Z,11.85
2022-10-08T00:23:05.594Z,12.53
2022-10-08T00:28:06.800Z,12.22
2022-10-08T00:33:07.966Z,12.06
2022-10-08T00:38:09.217Z,11.89
2022-10-08T00:43:11.346Z,11.73
2022-10-08T00:48:10.469Z,11.73
2022-10-08T00:53:11.550Z,11.56
2022-10-08T00:58:12.728Z,11.89
2022-10-08T01:03:13.851Z,12.06
2022-10-08T01:08:16.958Z,11.22
2022-10-08T01:13:16.056Z,11.38
2022-10-08T01:18:17.244Z,11.38
2022-10-08T01:23:18.463Z,11.38
2022-10-08T01:28:19.638Z,11.54
2022-10-08T01:33:20.819Z,11.54
2022-10-08T01:38:21.980Z,11.54
2022-10-08T01:43:23.076Z,11.38
2022-10-08T01:48:24.174Z,11.38
2022-10-08T01:53:23.734Z,11.22
2022-10-08T01:58:26.833Z,12.06
2022-10-08T02:03:25.947Z,12.06
2022-10-08T02:08:29.031Z,11.06
2022-10-08T02:13:28.232Z,11.06
2022-10-08T02:18:28.354Z,10.90
2022-10-08T02:23:29.471Z,11.73
2022-10-08T02:28:31.642Z,11.73
2022-10-08T02:33:30.812Z,10.90
2022-10-08T02:38:31.914Z,11.06
2022-10-08T02:43:33.067Z,11.06
2022-10-08T02:48:34.214Z,11.06
2022-10-08T02:53:35.318Z,11.22
2022-10-08T02:58:36.513Z,11.22
2022-10-08T03:03:37.712Z,11.22
2022-10-08T03:08:38.831Z,11.22
2022-10-08T03:13:39.988Z,11.06
2022-10-08T03:18:41.207Z,11.06
2022-10-08T03:23:42.299Z,11.06
2022-10-08T03:28:43.572Z,10.74
2022-10-08T03:33:45.660Z,11.56
2022-10-08T03:38:45.763Z,11.06
2022-10-08T03:43:43.973Z,10.89
2022-10-08T03:48:45.112Z,10.89
2022-10-08T03:53:46.258Z,11.23
2022-10-08T03:58:47.437Z,11.40
2022-10-08T04:03:48.604Z,11.23
2022-10-08T04:08:49.778Z,11.23
2022-10-08T04:13:50.946Z,11.06
2022-10-08T04:18:52.111Z,11.06
2022-10-08T04:23:54.227Z,10.89
2022-10-08T04:28:54.392Z,11.23
2022-10-08T04:33:52.524Z,11.06
2022-10-08T04:38:53.714Z,10.54
2022-10-08T04:43:54.876Z,11.16
2022-10-08T04:48:56.040Z,11.34
2022-10-08T04:53:57.300Z,10.54
2022-10-08T04:58:59.459Z,10.71
2022-10-08T05:03:58.694Z,11.06
2022-10-08T05:09:00.816Z,11.06
2022-10-08T05:13:59.997Z,11.06
2022-10-08T05:19:05.118Z,10.89
2022-10-08T05:24:02.244Z,10.89
2022-10-08T05:29:03.497Z,11.06
2022-10-08T05:34:04.623Z,11.23
2022-10-08T05:39:05.840Z,11.23
2022-10-08T05:44:07.011Z,11.56
2022-10-08T05:49:08.228Z,11.23
2022-10-08T05:54:09.398Z,11.06
2022-10-08T05:59:10.552Z,11.06
2022-10-08T06:04:11.668Z,10.89
2022-10-08T06:09:12.834Z,11.06
2022-10-08T06:14:14.039Z,11.06
2022-10-08T06:19:15.334Z,10.89
2022-10-08T06:24:16.434Z,10.54
2022-10-08T06:29:17.615Z,10.54
2022-10-08T06:34:18.811Z,10.71
2022-10-08T06:39:20.069Z,10.71
2022-10-08T06:44:21.294Z,10.54
2022-10-08T06:49:22.395Z,10.79
2022-10-08T06:54:23.596Z,10.97
2022-10-08T06:59:25.681Z,10.79
2022-10-08T07:04:25.097Z,10.79
2022-10-08T07:09:25.575Z,11.16
2022-10-08T07:14:24.860Z,10.97
2022-10-08T07:19:26.994Z,10.97
2022-10-08T07:24:26.092Z,10.79
2022-10-08T07:29:27.213Z,10.60
2022-10-08T07:34:28.316Z,10.60
2022-10-08T07:39:29.423Z,10.60
2022-10-08T07:44:30.576Z,10.97
2022-10-08T07:49:31.698Z,11.16
2022-10-08T07:54:32.924Z,10.41
2022-10-08T07:59:36.007Z,10.60
2022-10-08T08:04:35.100Z,10.97
2022-10-08T08:09:37.552Z,11.58
2022-10-08T08:14:37.626Z,11.58
2022-10-08T08:19:35.745Z,11.58
2022-10-08T08:24:36.885Z,10.79
2022-10-08T08:29:38.202Z,10.41
2022-10-08T08:34:39.305Z,10.60
2022-10-08T08:39:40.412Z,11.39
2022-10-08T08:44:41.526Z,11.58
2022-10-08T08:49:42.669Z,11.39
2022-10-08T08:54:43.864Z,11.58
2022-10-08T08:59:44.973Z,12.16
2022-10-08T09:04:46.095Z,11.97
2022-10-08T09:09:48.212Z,12.16
2022-10-08T09:14:47.488Z,12.16
2022-10-08T09:19:48.658Z,12.16
2022-10-08T09:24:49.788Z,11.97
2022-10-08T09:29:51.895Z,11.97
2022-10-08T09:34:51.024Z,12.36
2022-10-08T09:39:52.331Z,11.39
2022-10-08T09:44:53.469Z,11.39
2022-10-08T09:49:55.578Z,12.36
2022-10-08T09:54:54.878Z,12.36
2022-10-08T09:59:56.166Z,12.74
2022-10-08T10:04:57.462Z,12.33
2022-10-08T10:09:59.605Z,12.33
2022-10-08T10:14:59.713Z,12.12
2022-10-08T10:19:59.008Z,12.53
2022-10-08T10:25:00.111Z,12.94
2022-10-08T10:30:01.258Z,13.13
2022-10-08T10:35:02.383Z,13.13
2022-10-08T10:40:03.582Z,12.16
2022-10-08T10:45:04.841Z,13.33
2022-10-08T10:50:06.064Z,13.52
2022-10-08T10:55:07.170Z,13.52
2022-10-08T11:00:08.430Z,13.33
2022-10-08T11:05:09.555Z,13.33
2022-10-08T11:10:10.672Z,13.13
2022-10-08T11:15:12.776Z,13.13
2022-10-08T11:20:12.876Z,12.74
2022-10-08T11:25:12.982Z,12.93
2022-10-08T11:30:13.086Z,12.93
2022-10-08T11:35:12.190Z,13.84
2022-10-08T11:40:13.290Z,14.01
2022-10-08T11:45:14.412Z,14.19
2022-10-08T11:50:16.509Z,14.70
2022-10-08T11:55:16.612Z,14.04
2022-10-08T12:00:16.713Z,14.04
2022-10-08T12:05:15.809Z,14.04
2022-10-08T12:10:16.906Z,14.37
2022-10-08T12:15:19.021Z,14.20
2022-10-08T12:20:19.144Z,14.04
2022-10-08T12:25:19.272Z,14.20
2022-10-08T12:30:18.413Z,13.37
2022-10-08T12:35:19.636Z,13.84
2022-10-08T12:40:20.862Z,13.69
2022-10-08T12:45:21.992Z,13.84
2022-10-08T12:50:23.213Z,13.84
2022-10-08T12:55:24.339Z,13.84
2022-10-08T13:00:26.500Z,13.84
2022-10-08T13:05:25.774Z,13.84
2022-10-08T13:10:27.000Z,13.84
2022-10-08T13:15:28.232Z,13.84
2022-10-08T13:20:29.470Z,13.84
2022-10-08T13:25:31.564Z,13.84
2022-10-08T13:30:30.657Z,13.84
2022-10-08T13:35:33.756Z,13.84
2022-10-08T13:40:32.852Z,12.85
2022-10-08T13:45:32.937Z,13.84
2022-10-08T13:50:35.062Z,13.84
2022-10-08T13:55:34.334Z,13.84
2022-10-08T14:00:36.545Z,13.84
2022-10-08T14:05:34.679Z,13.84
2022-10-08T14:10:35.767Z,13.84
2022-10-08T14:15:37.033Z,13.84
2022-10-08T14:20:38.272Z,13.84
2022-10-08T14:25:39.408Z,13.84
2022-10-08T14:30:40.730Z,13.84
2022-10-08T14:35:42.869Z,13.84
2022-10-08T14:40:42.261Z,13.84
2022-10-08T14:45:45.399Z,13.84
2022-10-08T14:50:44.578Z,13.84
2022-10-08T14:56:10.576Z,13.84
2022-10-08T15:00:46.627Z,13.84
2022-10-08T15:05:47.751Z,13.84
2022-10-08T15:10:49.841Z,13.84
2022-10-08T15:15:49.943Z,13.84
2022-10-08T15:20:50.051Z,13.84
2022-10-08T15:25:50.173Z,13.84
2022-10-08T15:30:49.453Z,13.84
2022-10-08T15:35:50.676Z,13.84
2022-10-08T15:40:51.791Z,13.84
2022-10-08T15:45:52.938Z,13.84
2022-10-08T15:50:55.046Z,13.84
2022-10-08T15:55:54.315Z,13.84
2022-10-08T16:00:55.712Z,13.84
2022-10-08T16:05:57.818Z,13.84
2022-10-08T16:10:58.347Z,13.84
2022-10-08T16:15:58.474Z,13.84
2022-10-08T16:20:57.724Z,13.84
2022-10-08T16:25:58.878Z,13.84
2022-10-08T16:31:01.141Z,13.84
2022-10-08T16:36:01.122Z,13.84
2022-10-08T16:41:00.350Z,13.84
2022-10-08T16:46:01.498Z,13.84
2022-10-08T16:51:02.603Z,13.84
2022-10-08T16:56:04.736Z,13.84
2022-10-08T17:01:03.872Z,13.84
2022-10-08T17:06:05.059Z,13.84
2022-10-08T17:11:06.155Z,13.84
2022-10-08T17:16:08.265Z,13.84
2022-10-08T17:21:07.374Z,13.84
2022-10-08T17:26:08.542Z,13.84
2022-10-08T17:31:09.769Z,13.84
2022-10-08T17:36:10.854Z,13.84
2022-10-08T17:41:13.162Z,13.84
2022-10-08T17:46:13.943Z,13.84
2022-10-08T17:51:14.098Z,13.84
2022-10-08T17:56:14.391Z,13.84
2022-10-08T18:01:13.945Z,13.84
2022-10-08T18:06:13.436Z,13.84
2022-10-08T18:11:14.960Z,13.84
2022-10-08T18:16:14.187Z,13.84
2022-10-08T18:21:15.387Z,13.84
2022-10-08T18:26:17.738Z,13.84
2022-10-08T18:31:18.041Z,13.84
2022-10-08T18:36:17.439Z,13.84
2022-10-08T18:41:18.842Z,13.84
2022-10-08T18:46:20.369Z,13.84
2022-10-08T18:51:20.775Z,12.85
2022-10-08T18:56:21.254Z,12.85
2022-10-08T19:01:20.932Z,12.85
2022-10-08T19:06:21.950Z,12.85
2022-10-08T19:11:22.158Z,13.84
2022-10-08T19:16:23.333Z,13.84
2022-10-08T19:21:23.639Z,13.84
2022-10-08T19:26:24.026Z,13.84
2022-10-08T19:31:24.275Z,12.85
2022-10-08T19:36:23.597Z,12.85
2022-10-08T19:41:25.565Z,12.85
2022-10-08T19:46:24.830Z,12.85
2022-10-08T19:51:25.920Z,12.85
2022-10-08T19:56:27.023Z,12.85
2022-10-08T20:01:28.243Z,12.85
2022-10-08T20:06:29.350Z,12.85
2022-10-08T20:11:30.674Z,12.85
2022-10-08T20:16:31.955Z,12.85
2022-10-08T20:21:33.102Z,12.85
2022-10-08T20:26:34.253Z,12.85
2022-10-08T20:31:36.461Z,12.85
2022-10-08T20:36:36.662Z,12.85
2022-10-08T20:41:36.822Z,12.85
2022-10-08T20:46:37.054Z,12.85
2022-10-08T20:51:36.223Z,13.84
2022-10-08T20:56:40.131Z,13.84
2022-10-08T21:01:37.660Z,13.84
2022-10-08T21:06:39.843Z,13.84
2022-10-08T21:11:39.972Z,13.84
2022-10-08T21:16:39.171Z,12.85
2022-10-08T21:21:40.305Z,12.85
2022-10-08T21:27:00.398Z,12.85
2022-10-08T21:31:41.517Z,12.85
2022-10-08T21:36:42.633Z,12.85
2022-10-08T21:41:43.732Z,12.85
2022-10-08T21:46:43.871Z,12.85
2022-10-08T21:51:45.989Z,12.85
2022-10-08T21:56:46.118Z,12.85
2022-10-08T22:01:45.291Z,12.85
2022-10-08T22:06:46.420Z,12.85
2022-10-08T22:11:48.530Z,12.85
2022-10-08T22:16:47.941Z,12.85
2022-10-08T22:21:49.067Z,12.85
2022-10-08T22:26:51.181Z,12.85
2022-10-08T22:31:50.418Z,12.85
2022-10-08T22:36:51.567Z,12.85
2022-10-08T22:41:52.661Z,12.85
2022-10-08T22:46:54.773Z,11.85
2022-10-08T22:51:54.029Z,12.85
2022-10-08T22:56:55.431Z,11.85
2022-10-08T23:01:56.625Z,11.85
2022-10-08T23:06:57.921Z,11.85
2022-10-08T23:11:59.027Z,11.85
2022-10-08T23:17:01.195Z,11.85
2022-10-08T23:22:00.346Z,11.85
2022-10-08T23:27:01.420Z,11.85
2022-10-08T23:32:02.625Z,11.85
2022-10-08T23:37:03.897Z,11.85
2022-10-08T23:42:04.982Z,11.85
2022-10-08T23:47:06.165Z,11.85
2022-10-08T23:52:07.249Z,11.85
2022-10-08T23:57:09.351Z,11.85
